sensor_id;sensor_type;location;lat;lon;timestamp;P1;durP1;ratioP1;P2;durP2;ratioP2
13605;SDS011;6874;52.084;5.090;2023-06-22T00:02:13;54.13;;;51.93;;
13605;SDS011;6874;52.084;5.090;2023-06-22T00:04:38;56.53;;;54.17;;
13605;SDS011;6874;52.084;5.090;2023-06-22T00:07:04;63.07;;;60.37;;
13605;SDS011;6874;52.084;5.090;2023-06-22T00:09:30;66.67;;;63.77;;
13605;SDS011;6874;52.084;5.090;2023-06-22T00:11:56;68.10;;;65.10;;
13605;SDS011;6874;52.084;5.090;2023-06-22T00:14:21;74.73;;;71.50;;
13605;SDS011;6874;52.084;5.090;2023-06-22T00:16:47;80.10;;;76.50;;
13605;SDS011;6874;52.084;5.090;2023-06-22T00:19:14;88.77;;;84.87;;
13605;SDS011;6874;52.084;5.090;2023-06-22T00:21:44;102.80;;;98.20;;
13605;SDS011;6874;52.084;5.090;2023-06-22T00:24:12;98.97;;;94.60;;
13605;SDS011;6874;52.084;5.090;2023-06-22T00:26:37;98.70;;;94.33;;
13605;SDS011;6874;52.084;5.090;2023-06-22T00:29:03;101.20;;;96.70;;
13605;SDS011;6874;52.084;5.090;2023-06-22T00:31:29;115.23;;;110.03;;
13605;SDS011;6874;52.084;5.090;2023-06-22T00:33:54;135.13;;;128.80;;
13605;SDS011;6874;52.084;5.090;2023-06-22T00:36:20;141.83;;;135.23;;
13605;SDS011;6874;52.084;5.090;2023-06-22T00:38:45;144.83;;;137.93;;
13605;SDS011;6874;52.084;5.090;2023-06-22T00:41:11;152.50;;;145.27;;
13605;SDS011;6874;52.084;5.090;2023-06-22T00:43:36;165.87;;;157.93;;
13605;SDS011;6874;52.084;5.090;2023-06-22T00:46:02;173.97;;;165.70;;
13605;SDS011;6874;52.084;5.090;2023-06-22T00:48:28;175.90;;;167.63;;
13605;SDS011;6874;52.084;5.090;2023-06-22T00:50:54;190.73;;;181.73;;
13605;SDS011;6874;52.084;5.090;2023-06-22T00:53:20;198.33;;;189.13;;
13605;SDS011;6874;52.084;5.090;2023-06-22T00:55:46;200.63;;;191.50;;
13605;SDS011;6874;52.084;5.090;2023-06-22T00:58:12;193.07;;;184.20;;
13605;SDS011;6874;52.084;5.090;2023-06-22T01:00:38;199.77;;;190.60;;
13605;SDS011;6874;52.084;5.090;2023-06-22T01:03:05;204.17;;;194.87;;
13605;SDS011;6874;52.084;5.090;2023-06-22T01:05:33;219.93;;;210.27;;
13605;SDS011;6874;52.084;5.090;2023-06-22T01:11:13;209.00;;;200.13;;
13605;SDS011;6874;52.084;5.090;2023-06-22T01:16:15;240.40;;;230.77;;
13605;SDS011;6874;52.084;5.090;2023-06-22T01:18:45;245.70;;;235.90;;
13605;SDS011;6874;52.084;5.090;2023-06-22T01:21:15;241.20;;;231.50;;
13605;SDS011;6874;52.084;5.090;2023-06-22T01:26:53;266.10;;;255.83;;
13605;SDS011;6874;52.084;5.090;2023-06-22T01:29:20;290.33;;;279.23;;
13605;SDS011;6874;52.084;5.090;2023-06-22T01:31:47;298.13;;;286.47;;
13605;SDS011;6874;52.084;5.090;2023-06-22T01:34:15;305.67;;;293.80;;
13605;SDS011;6874;52.084;5.090;2023-06-22T01:36:41;309.37;;;297.33;;
13605;SDS011;6874;52.084;5.090;2023-06-22T01:39:08;292.37;;;280.83;;
13605;SDS011;6874;52.084;5.090;2023-06-22T01:41:35;289.27;;;277.77;;
13605;SDS011;6874;52.084;5.090;2023-06-22T01:44:06;307.60;;;295.40;;
13605;SDS011;6874;52.084;5.090;2023-06-22T01:46:36;306.40;;;294.40;;
13605;SDS011;6874;52.084;5.090;2023-06-22T01:49:03;276.13;;;264.40;;
13605;SDS011;6874;52.084;5.090;2023-06-22T01:51:30;260.23;;;248.53;;
13605;SDS011;6874;52.084;5.090;2023-06-22T01:53:56;267.17;;;255.13;;
13605;SDS011;6874;52.084;5.090;2023-06-22T01:56:21;261.10;;;249.13;;
13605;SDS011;6874;52.084;5.090;2023-06-22T02:01:41;252.17;;;240.83;;
13605;SDS011;6874;52.084;5.090;2023-06-22T02:04:11;257.50;;;245.70;;
13605;SDS011;6874;52.084;5.090;2023-06-22T02:06:42;261.77;;;249.83;;
13605;SDS011;6874;52.084;5.090;2023-06-22T02:09:12;272.20;;;259.60;;
13605;SDS011;6874;52.084;5.090;2023-06-22T02:11:42;278.80;;;265.90;;
13605;SDS011;6874;52.084;5.090;2023-06-22T02:14:11;295.47;;;281.80;;
13605;SDS011;6874;52.084;5.090;2023-06-22T02:16:38;300.50;;;286.73;;
13605;SDS011;6874;52.084;5.090;2023-06-22T02:19:05;324.50;;;309.77;;
13605;SDS011;6874;52.084;5.090;2023-06-22T02:21:31;340.87;;;325.17;;
13605;SDS011;6874;52.084;5.090;2023-06-22T02:23:57;346.03;;;330.30;;
13605;SDS011;6874;52.084;5.090;2023-06-22T02:26:23;344.53;;;328.73;;
13605;SDS011;6874;52.084;5.090;2023-06-22T02:28:51;354.83;;;338.50;;
13605;SDS011;6874;52.084;5.090;2023-06-22T02:31:17;355.80;;;339.47;;
13605;SDS011;6874;52.084;5.090;2023-06-22T02:33:43;364.20;;;347.50;;
13605;SDS011;6874;52.084;5.090;2023-06-22T02:36:09;366.03;;;348.97;;
13605;SDS011;6874;52.084;5.090;2023-06-22T02:38:38;386.17;;;368.20;;
13605;SDS011;6874;52.084;5.090;2023-06-22T02:41:10;396.97;;;378.60;;
13605;SDS011;6874;52.084;5.090;2023-06-22T02:43:38;400.57;;;382.10;;
13605;SDS011;6874;52.084;5.090;2023-06-22T02:46:03;389.10;;;371.10;;
13605;SDS011;6874;52.084;5.090;2023-06-22T02:48:29;412.27;;;393.17;;
13605;SDS011;6874;52.084;5.090;2023-06-22T02:50:54;417.53;;;398.63;;
13605;SDS011;6874;52.084;5.090;2023-06-22T02:53:20;412.20;;;393.50;;
13605;SDS011;6874;52.084;5.090;2023-06-22T02:55:45;412.30;;;393.53;;
13605;SDS011;6874;52.084;5.090;2023-06-22T02:58:11;408.23;;;390.20;;
13605;SDS011;6874;52.084;5.090;2023-06-22T03:00:37;393.93;;;376.63;;
13605;SDS011;6874;52.084;5.090;2023-06-22T03:03:04;381.90;;;365.30;;
13605;SDS011;6874;52.084;5.090;2023-06-22T03:05:29;383.13;;;366.63;;
13605;SDS011;6874;52.084;5.090;2023-06-22T03:07:55;364.43;;;349.13;;
13605;SDS011;6874;52.084;5.090;2023-06-22T03:10:21;347.47;;;333.23;;
13605;SDS011;6874;52.084;5.090;2023-06-22T03:12:46;341.93;;;328.30;;
13605;SDS011;6874;52.084;5.090;2023-06-22T03:15:12;331.80;;;318.70;;
13605;SDS011;6874;52.084;5.090;2023-06-22T03:17:38;313.90;;;301.63;;
13605;SDS011;6874;52.084;5.090;2023-06-22T03:20:06;304.17;;;292.57;;
13605;SDS011;6874;52.084;5.090;2023-06-22T03:22:37;281.33;;;270.83;;
13605;SDS011;6874;52.084;5.090;2023-06-22T03:25:03;274.30;;;264.13;;
13605;SDS011;6874;52.084;5.090;2023-06-22T03:27:29;271.60;;;261.67;;
13605;SDS011;6874;52.084;5.090;2023-06-22T03:29:56;258.97;;;249.50;;
13605;SDS011;6874;52.084;5.090;2023-06-22T03:32:22;253.43;;;244.17;;
13605;SDS011;6874;52.084;5.090;2023-06-22T03:34:48;247.10;;;238.20;;
13605;SDS011;6874;52.084;5.090;2023-06-22T03:37:14;252.63;;;243.73;;
13605;SDS011;6874;52.084;5.090;2023-06-22T03:39:40;232.03;;;223.90;;
13605;SDS011;6874;52.084;5.090;2023-06-22T03:42:06;219.23;;;211.60;;
13605;SDS011;6874;52.084;5.090;2023-06-22T03:44:33;216.67;;;209.10;;
13605;SDS011;6874;52.084;5.090;2023-06-22T03:46:58;204.57;;;197.57;;
13605;SDS011;6874;52.084;5.090;2023-06-22T03:49:24;204.27;;;197.33;;
13605;SDS011;6874;52.084;5.090;2023-06-22T03:51:49;187.77;;;181.37;;
13605;SDS011;6874;52.084;5.090;2023-06-22T03:54:15;181.20;;;175.00;;
13605;SDS011;6874;52.084;5.090;2023-06-22T03:56:40;175.33;;;169.43;;
13605;SDS011;6874;52.084;5.090;2023-06-22T03:59:06;161.50;;;156.00;;
13605;SDS011;6874;52.084;5.090;2023-06-22T04:01:32;166.67;;;161.07;;
13605;SDS011;6874;52.084;5.090;2023-06-22T04:03:57;152.27;;;147.17;;
13605;SDS011;6874;52.084;5.090;2023-06-22T04:06:23;154.57;;;149.40;;
13605;SDS011;6874;52.084;5.090;2023-06-22T04:08:48;146.33;;;141.43;;
13605;SDS011;6874;52.084;5.090;2023-06-22T04:11:16;135.17;;;130.63;;
13605;SDS011;6874;52.084;5.090;2023-06-22T04:13:43;143.70;;;138.90;;
13605;SDS011;6874;52.084;5.090;2023-06-22T04:16:08;141.03;;;136.33;;
13605;SDS011;6874;52.084;5.090;2023-06-22T04:18:34;128.90;;;124.67;;
13605;SDS011;6874;52.084;5.090;2023-06-22T04:21:00;135.03;;;130.57;;
13605;SDS011;6874;52.084;5.090;2023-06-22T04:23:26;125.57;;;121.43;;
13605;SDS011;6874;52.084;5.090;2023-06-22T04:25:51;124.87;;;120.77;;
13605;SDS011;6874;52.084;5.090;2023-06-22T04:28:17;120.23;;;116.27;;
13605;SDS011;6874;52.084;5.090;2023-06-22T04:30:43;124.60;;;120.47;;
13605;SDS011;6874;52.084;5.090;2023-06-22T04:33:12;126.47;;;122.30;;
13605;SDS011;6874;52.084;5.090;2023-06-22T04:35:41;131.93;;;127.57;;
13605;SDS011;6874;52.084;5.090;2023-06-22T04:38:09;127.57;;;123.40;;
13605;SDS011;6874;52.084;5.090;2023-06-22T04:40:38;133.40;;;128.97;;
13605;SDS011;6874;52.084;5.090;2023-06-22T04:43:04;140.77;;;136.13;;
13605;SDS011;6874;52.084;5.090;2023-06-22T04:45:31;158.63;;;153.37;;
13605;SDS011;6874;52.084;5.090;2023-06-22T04:47:57;156.73;;;151.57;;
13605;SDS011;6874;52.084;5.090;2023-06-22T04:50:23;170.60;;;164.97;;
13605;SDS011;6874;52.084;5.090;2023-06-22T04:52:49;124.70;;;120.57;;
13605;SDS011;6874;52.084;5.090;2023-06-22T04:55:15;142.23;;;137.53;;
13605;SDS011;6874;52.084;5.090;2023-06-22T04:57:45;145.00;;;140.17;;
13605;SDS011;6874;52.084;5.090;2023-06-22T05:00:14;161.27;;;155.87;;
13605;SDS011;6874;52.084;5.090;2023-06-22T05:02:44;169.37;;;163.70;;
13605;SDS011;6874;52.084;5.090;2023-06-22T05:05:11;181.87;;;175.73;;
13605;SDS011;6874;52.084;5.090;2023-06-22T05:07:41;185.70;;;179.47;;
13605;SDS011;6874;52.084;5.090;2023-06-22T05:10:08;209.63;;;202.47;;
13605;SDS011;6874;52.084;5.090;2023-06-22T05:12:36;167.83;;;162.13;;
13605;SDS011;6874;52.084;5.090;2023-06-22T05:15:01;167.77;;;162.07;;
13605;SDS011;6874;52.084;5.090;2023-06-22T05:17:27;169.13;;;163.43;;
13605;SDS011;6874;52.084;5.090;2023-06-22T05:19:53;171.00;;;165.20;;
13605;SDS011;6874;52.084;5.090;2023-06-22T05:22:20;190.30;;;183.73;;
13605;SDS011;6874;52.084;5.090;2023-06-22T05:24:45;166.13;;;160.47;;
13605;SDS011;6874;52.084;5.090;2023-06-22T05:27:12;209.77;;;202.63;;
13605;SDS011;6874;52.084;5.090;2023-06-22T05:29:37;160.43;;;154.97;;
13605;SDS011;6874;52.084;5.090;2023-06-22T05:32:04;153.20;;;148.00;;
13605;SDS011;6874;52.084;5.090;2023-06-22T05:34:30;175.67;;;169.67;;
13605;SDS011;6874;52.084;5.090;2023-06-22T05:36:55;160.47;;;155.07;;
13605;SDS011;6874;52.084;5.090;2023-06-22T05:39:23;173.70;;;167.93;;
13605;SDS011;6874;52.084;5.090;2023-06-22T05:41:49;181.13;;;175.07;;
13605;SDS011;6874;52.084;5.090;2023-06-22T05:44:15;163.00;;;157.47;;
13605;SDS011;6874;52.084;5.090;2023-06-22T05:46:41;193.97;;;187.43;;
13605;SDS011;6874;52.084;5.090;2023-06-22T05:49:14;217.87;;;210.43;;
13605;SDS011;6874;52.084;5.090;2023-06-22T05:51:40;267.83;;;258.37;;
13605;SDS011;6874;52.084;5.090;2023-06-22T05:54:06;372.83;;;358.70;;
13605;SDS011;6874;52.084;5.090;2023-06-22T05:56:33;354.63;;;341.57;;
13605;SDS011;6874;52.084;5.090;2023-06-22T05:58:58;434.93;;;417.73;;
13605;SDS011;6874;52.084;5.090;2023-06-22T06:01:24;509.17;;;487.93;;
13605;SDS011;6874;52.084;5.090;2023-06-22T06:03:50;566.80;;;542.07;;
13605;SDS011;6874;52.084;5.090;2023-06-22T06:06:17;549.97;;;525.93;;
13605;SDS011;6874;52.084;5.090;2023-06-22T06:08:45;598.10;;;570.40;;
13605;SDS011;6874;52.084;5.090;2023-06-22T06:11:10;541.23;;;518.03;;
13605;SDS011;6874;52.084;5.090;2023-06-22T06:13:36;545.87;;;522.13;;
13605;SDS011;6874;52.084;5.090;2023-06-22T06:16:02;564.10;;;539.63;;
13605;SDS011;6874;52.084;5.090;2023-06-22T06:18:27;549.93;;;526.17;;
13605;SDS011;6874;52.084;5.090;2023-06-22T06:20:53;519.33;;;497.33;;
13605;SDS011;6874;52.084;5.090;2023-06-22T06:23:18;523.57;;;501.27;;
13605;SDS011;6874;52.084;5.090;2023-06-22T06:25:44;577.50;;;552.00;;
13605;SDS011;6874;52.084;5.090;2023-06-22T06:28:10;542.00;;;518.90;;
13605;SDS011;6874;52.084;5.090;2023-06-22T06:30:35;519.33;;;497.47;;
13605;SDS011;6874;52.084;5.090;2023-06-22T06:33:02;469.20;;;450.73;;
13605;SDS011;6874;52.084;5.090;2023-06-22T06:35:29;491.37;;;471.67;;
13605;SDS011;6874;52.084;5.090;2023-06-22T06:37:55;509.73;;;488.60;;
13605;SDS011;6874;52.084;5.090;2023-06-22T06:40:21;506.00;;;484.70;;
13605;SDS011;6874;52.084;5.090;2023-06-22T06:42:47;498.83;;;478.10;;
13605;SDS011;6874;52.084;5.090;2023-06-22T06:45:17;480.33;;;461.17;;
13605;SDS011;6874;52.084;5.090;2023-06-22T06:47:44;541.40;;;517.90;;
13605;SDS011;6874;52.084;5.090;2023-06-22T06:50:11;502.60;;;481.50;;
13605;SDS011;6874;52.084;5.090;2023-06-22T06:52:38;457.23;;;439.83;;
13605;SDS011;6874;52.084;5.090;2023-06-22T06:55:04;425.20;;;409.03;;
13605;SDS011;6874;52.084;5.090;2023-06-22T06:57:36;403.70;;;388.80;;
13605;SDS011;6874;52.084;5.090;2023-06-22T07:00:07;381.63;;;367.90;;
13605;SDS011;6874;52.084;5.090;2023-06-22T07:02:37;363.93;;;350.53;;
13605;SDS011;6874;52.084;5.090;2023-06-22T07:05:04;228.87;;;220.83;;
13605;SDS011;6874;52.084;5.090;2023-06-22T07:07:30;246.23;;;237.43;;
13605;SDS011;6874;52.084;5.090;2023-06-22T07:09:56;226.93;;;218.87;;
13605;SDS011;6874;52.084;5.090;2023-06-22T07:12:21;199.23;;;192.20;;
13605;SDS011;6874;52.084;5.090;2023-06-22T07:14:47;162.10;;;156.40;;
13605;SDS011;6874;52.084;5.090;2023-06-22T07:17:13;159.27;;;153.70;;
13605;SDS011;6874;52.084;5.090;2023-06-22T07:19:38;165.00;;;159.27;;
13605;SDS011;6874;52.084;5.090;2023-06-22T07:22:05;140.57;;;135.57;;
13605;SDS011;6874;52.084;5.090;2023-06-22T07:24:30;128.70;;;124.23;;
13605;SDS011;6874;52.084;5.090;2023-06-22T07:26:57;165.80;;;159.97;;
13605;SDS011;6874;52.084;5.090;2023-06-22T07:29:24;114.70;;;110.57;;
13605;SDS011;6874;52.084;5.090;2023-06-22T07:31:51;125.47;;;120.83;;
13605;SDS011;6874;52.084;5.090;2023-06-22T07:34:17;124.97;;;120.27;;
13605;SDS011;6874;52.084;5.090;2023-06-22T07:36:43;140.87;;;135.50;;
13605;SDS011;6874;52.084;5.090;2023-06-22T07:39:09;140.87;;;135.27;;
13605;SDS011;6874;52.084;5.090;2023-06-22T07:41:35;172.57;;;165.97;;
13605;SDS011;6874;52.084;5.090;2023-06-22T07:44:02;219.03;;;210.40;;
13605;SDS011;6874;52.084;5.090;2023-06-22T07:46:28;345.43;;;330.73;;
13605;SDS011;6874;52.084;5.090;2023-06-22T07:48:55;431.57;;;412.57;;
13605;SDS011;6874;52.084;5.090;2023-06-22T07:51:21;480.83;;;459.73;;
13605;SDS011;6874;52.084;5.090;2023-06-22T07:53:47;490.23;;;468.57;;
13605;SDS011;6874;52.084;5.090;2023-06-22T07:56:13;492.07;;;469.20;;
13605;SDS011;6874;52.084;5.090;2023-06-22T07:58:43;476.53;;;454.03;;
13605;SDS011;6874;52.084;5.090;2023-06-22T08:01:09;513.90;;;489.50;;
13605;SDS011;6874;52.084;5.090;2023-06-22T08:03:36;553.20;;;527.33;;
13605;SDS011;6874;52.084;5.090;2023-06-22T08:06:01;556.00;;;530.93;;
13605;SDS011;6874;52.084;5.090;2023-06-22T08:08:27;503.53;;;482.67;;
13605;SDS011;6874;52.084;5.090;2023-06-22T08:10:52;408.93;;;394.03;;
13605;SDS011;6874;52.084;5.090;2023-06-22T08:13:18;374.63;;;361.63;;
13605;SDS011;6874;52.084;5.090;2023-06-22T08:15:44;377.13;;;363.93;;
13605;SDS011;6874;52.084;5.090;2023-06-22T08:18:10;355.53;;;343.13;;
13605;SDS011;6874;52.084;5.090;2023-06-22T08:20:35;364.83;;;351.70;;
13605;SDS011;6874;52.084;5.090;2023-06-22T08:23:01;351.40;;;339.03;;
13605;SDS011;6874;52.084;5.090;2023-06-22T08:25:31;333.27;;;321.90;;
13605;SDS011;6874;52.084;5.090;2023-06-22T08:27:58;318.83;;;308.00;;
13605;SDS011;6874;52.084;5.090;2023-06-22T08:30:23;295.77;;;285.67;;
13605;SDS011;6874;52.084;5.090;2023-06-22T08:32:49;267.47;;;258.23;;
13605;SDS011;6874;52.084;5.090;2023-06-22T08:35:15;277.03;;;267.20;;
13605;SDS011;6874;52.084;5.090;2023-06-22T08:37:40;311.07;;;299.93;;
13605;SDS011;6874;52.084;5.090;2023-06-22T08:40:09;362.33;;;348.83;;
13605;SDS011;6874;52.084;5.090;2023-06-22T08:42:36;451.50;;;432.50;;
13605;SDS011;6874;52.084;5.090;2023-06-22T08:45:02;520.10;;;496.60;;
13605;SDS011;6874;52.084;5.090;2023-06-22T08:47:28;493.50;;;472.00;;
13605;SDS011;6874;52.084;5.090;2023-06-22T08:49:54;546.73;;;521.87;;
13605;SDS011;6874;52.084;5.090;2023-06-22T08:52:20;566.67;;;540.13;;
13605;SDS011;6874;52.084;5.090;2023-06-22T08:57:31;610.93;;;581.23;;
13605;SDS011;6874;52.084;5.090;2023-06-22T08:59:57;606.03;;;576.57;;
13605;SDS011;6874;52.084;5.090;2023-06-22T09:02:23;572.90;;;545.77;;
13605;SDS011;6874;52.084;5.090;2023-06-22T09:04:55;523.40;;;500.03;;
13605;SDS011;6874;52.084;5.090;2023-06-22T09:07:24;487.63;;;467.23;;
13605;SDS011;6874;52.084;5.090;2023-06-22T09:09:51;450.83;;;432.63;;
13605;SDS011;6874;52.084;5.090;2023-06-22T09:12:17;411.03;;;395.03;;
13605;SDS011;6874;52.084;5.090;2023-06-22T09:14:45;400.97;;;385.47;;
13605;SDS011;6874;52.084;5.090;2023-06-22T09:17:12;397.77;;;382.67;;
13605;SDS011;6874;52.084;5.090;2023-06-22T09:19:38;384.80;;;370.37;;
13605;SDS011;6874;52.084;5.090;2023-06-22T09:22:03;369.67;;;355.80;;
13605;SDS011;6874;52.084;5.090;2023-06-22T09:24:31;352.97;;;339.87;;
13605;SDS011;6874;52.084;5.090;2023-06-22T09:26:57;359.33;;;346.10;;
13605;SDS011;6874;52.084;5.090;2023-06-22T09:29:22;353.43;;;340.43;;
13605;SDS011;6874;52.084;5.090;2023-06-22T09:31:48;348.47;;;335.40;;
13605;SDS011;6874;52.084;5.090;2023-06-22T09:34:13;350.53;;;337.50;;
13605;SDS011;6874;52.084;5.090;2023-06-22T09:36:40;329.13;;;316.93;;
13605;SDS011;6874;52.084;5.090;2023-06-22T09:39:06;350.10;;;336.67;;
13605;SDS011;6874;52.084;5.090;2023-06-22T09:41:32;417.23;;;400.03;;
13605;SDS011;6874;52.084;5.090;2023-06-22T09:43:57;334.43;;;321.20;;
13605;SDS011;6874;52.084;5.090;2023-06-22T09:46:23;347.87;;;334.00;;
13605;SDS011;6874;52.084;5.090;2023-06-22T09:48:50;353.93;;;340.00;;
13605;SDS011;6874;52.084;5.090;2023-06-22T09:51:16;340.63;;;327.13;;
13605;SDS011;6874;52.084;5.090;2023-06-22T09:53:42;343.33;;;329.87;;
13605;SDS011;6874;52.084;5.090;2023-06-22T09:56:07;345.43;;;331.93;;
13605;SDS011;6874;52.084;5.090;2023-06-22T09:58:39;357.27;;;343.30;;
13605;SDS011;6874;52.084;5.090;2023-06-22T10:01:08;356.90;;;342.47;;
13605;SDS011;6874;52.084;5.090;2023-06-22T10:03:35;383.03;;;367.37;;
13605;SDS011;6874;52.084;5.090;2023-06-22T10:06:01;404.23;;;387.63;;
13605;SDS011;6874;52.084;5.090;2023-06-22T10:08:27;404.77;;;388.00;;
13605;SDS011;6874;52.084;5.090;2023-06-22T10:10:52;412.77;;;395.67;;
13605;SDS011;6874;52.084;5.090;2023-06-22T10:13:18;409.00;;;392.13;;
13605;SDS011;6874;52.084;5.090;2023-06-22T10:15:44;408.53;;;391.80;;
13605;SDS011;6874;52.084;5.090;2023-06-22T10:18:16;399.13;;;382.80;;
13605;SDS011;6874;52.084;5.090;2023-06-22T10:20:42;403.00;;;386.30;;
13605;SDS011;6874;52.084;5.090;2023-06-22T10:23:08;406.00;;;389.27;;
13605;SDS011;6874;52.084;5.090;2023-06-22T10:25:33;406.40;;;389.47;;
13605;SDS011;6874;52.084;5.090;2023-06-22T10:27:59;414.43;;;397.17;;
13605;SDS011;6874;52.084;5.090;2023-06-22T10:30:24;424.60;;;406.90;;
13605;SDS011;6874;52.084;5.090;2023-06-22T10:32:50;425.43;;;407.60;;
13605;SDS011;6874;52.084;5.090;2023-06-22T10:35:16;434.37;;;416.20;;
13605;SDS011;6874;52.084;5.090;2023-06-22T10:37:45;433.50;;;415.23;;
13605;SDS011;6874;52.084;5.090;2023-06-22T10:40:15;437.77;;;419.40;;
13605;SDS011;6874;52.084;5.090;2023-06-22T10:42:42;432.07;;;413.97;;
13605;SDS011;6874;52.084;5.090;2023-06-22T10:45:08;440.63;;;422.27;;
13605;SDS011;6874;52.084;5.090;2023-06-22T10:47:34;438.77;;;420.40;;
13605;SDS011;6874;52.084;5.090;2023-06-22T10:50:01;436.73;;;418.77;;
13605;SDS011;6874;52.084;5.090;2023-06-22T10:52:27;418.93;;;401.83;;
13605;SDS011;6874;52.084;5.090;2023-06-22T10:54:52;377.67;;;362.60;;
13605;SDS011;6874;52.084;5.090;2023-06-22T10:57:18;362.07;;;347.77;;
13605;SDS011;6874;52.084;5.090;2023-06-22T10:59:44;363.33;;;349.03;;
13605;SDS011;6874;52.084;5.090;2023-06-22T11:02:09;347.80;;;334.20;;
13605;SDS011;6874;52.084;5.090;2023-06-22T11:04:35;350.37;;;336.80;;
13605;SDS011;6874;52.084;5.090;2023-06-22T11:07:00;344.17;;;330.80;;
13605;SDS011;6874;52.084;5.090;2023-06-22T11:09:26;341.93;;;328.70;;
13605;SDS011;6874;52.084;5.090;2023-06-22T11:11:52;338.60;;;325.53;;
13605;SDS011;6874;52.084;5.090;2023-06-22T11:14:20;324.27;;;311.80;;
13605;SDS011;6874;52.084;5.090;2023-06-22T11:16:46;330.93;;;318.20;;
13605;SDS011;6874;52.084;5.090;2023-06-22T11:19:12;322.40;;;309.97;;
13605;SDS011;6874;52.084;5.090;2023-06-22T11:21:38;319.17;;;306.90;;
13605;SDS011;6874;52.084;5.090;2023-06-22T11:24:03;306.83;;;295.03;;
13605;SDS011;6874;52.084;5.090;2023-06-22T11:26:30;313.00;;;300.90;;
13605;SDS011;6874;52.084;5.090;2023-06-22T11:28:56;307.43;;;295.60;;
13605;SDS011;6874;52.084;5.090;2023-06-22T11:31:22;318.50;;;306.23;;
13605;SDS011;6874;52.084;5.090;2023-06-22T11:33:48;315.13;;;303.10;;
13605;SDS011;6874;52.084;5.090;2023-06-22T11:36:13;322.33;;;310.00;;
13605;SDS011;6874;52.084;5.090;2023-06-22T11:38:40;318.83;;;306.70;;
13605;SDS011;6874;52.084;5.090;2023-06-22T11:41:06;312.40;;;300.67;;
13605;SDS011;6874;52.084;5.090;2023-06-22T11:43:32;316.37;;;304.33;;
13605;SDS011;6874;52.084;5.090;2023-06-22T11:45:58;317.77;;;305.63;;
13605;SDS011;6874;52.084;5.090;2023-06-22T11:48:24;302.83;;;291.23;;
13605;SDS011;6874;52.084;5.090;2023-06-22T11:50:50;302.53;;;291.07;;
13605;SDS011;6874;52.084;5.090;2023-06-22T11:53:16;274.27;;;263.73;;
13605;SDS011;6874;52.084;5.090;2023-06-22T11:55:42;264.20;;;254.13;;
13605;SDS011;6874;52.084;5.090;2023-06-22T11:58:08;243.30;;;234.00;;
13605;SDS011;6874;52.084;5.090;2023-06-22T12:00:34;227.63;;;218.97;;
13605;SDS011;6874;52.084;5.090;2023-06-22T12:03:00;208.83;;;201.00;;
13605;SDS011;6874;52.084;5.090;2023-06-22T12:05:26;201.30;;;193.70;;
13605;SDS011;6874;52.084;5.090;2023-06-22T12:07:54;195.13;;;187.83;;
13605;SDS011;6874;52.084;5.090;2023-06-22T12:10:21;184.67;;;177.70;;
13605;SDS011;6874;52.084;5.090;2023-06-22T12:12:47;182.20;;;175.40;;
13605;SDS011;6874;52.084;5.090;2023-06-22T12:15:13;191.80;;;184.57;;
13605;SDS011;6874;52.084;5.090;2023-06-22T12:17:38;186.77;;;179.77;;
13605;SDS011;6874;52.084;5.090;2023-06-22T12:20:05;182.67;;;175.93;;
13605;SDS011;6874;52.084;5.090;2023-06-22T12:22:32;171.57;;;165.23;;
13605;SDS011;6874;52.084;5.090;2023-06-22T12:24:57;160.77;;;154.93;;
13605;SDS011;6874;52.084;5.090;2023-06-22T12:27:23;157.30;;;151.60;;
13605;SDS011;6874;52.084;5.090;2023-06-22T12:29:49;151.13;;;145.60;;
13605;SDS011;6874;52.084;5.090;2023-06-22T12:32:15;158.87;;;153.10;;
13605;SDS011;6874;52.084;5.090;2023-06-22T12:34:41;151.93;;;146.37;;
13605;SDS011;6874;52.084;5.090;2023-06-22T12:37:08;154.80;;;149.17;;
13605;SDS011;6874;52.084;5.090;2023-06-22T12:39:34;142.40;;;137.23;;
13605;SDS011;6874;52.084;5.090;2023-06-22T12:41:59;136.63;;;131.77;;
13605;SDS011;6874;52.084;5.090;2023-06-22T12:44:25;134.97;;;130.20;;
13605;SDS011;6874;52.084;5.090;2023-06-22T12:46:51;125.53;;;121.13;;
13605;SDS011;6874;52.084;5.090;2023-06-22T12:49:16;122.70;;;118.50;;
13605;SDS011;6874;52.084;5.090;2023-06-22T12:51:42;127.53;;;123.27;;
13605;SDS011;6874;52.084;5.090;2023-06-22T12:54:09;122.40;;;118.33;;
13605;SDS011;6874;52.084;5.090;2023-06-22T12:56:35;139.07;;;134.33;;
13605;SDS011;6874;52.084;5.090;2023-06-22T12:59:02;152.13;;;146.90;;
13605;SDS011;6874;52.084;5.090;2023-06-22T13:01:28;169.50;;;163.60;;
13605;SDS011;6874;52.084;5.090;2023-06-22T13:03:55;177.23;;;170.93;;
13605;SDS011;6874;52.084;5.090;2023-06-22T13:06:21;203.07;;;195.77;;
13605;SDS011;6874;52.084;5.090;2023-06-22T13:08:47;219.30;;;211.17;;
13605;SDS011;6874;52.084;5.090;2023-06-22T13:11:12;246.57;;;237.30;;
13605;SDS011;6874;52.084;5.090;2023-06-22T13:13:38;267.10;;;256.97;;
13605;SDS011;6874;52.084;5.090;2023-06-22T13:16:05;278.40;;;267.77;;
13605;SDS011;6874;52.084;5.090;2023-06-22T13:18:30;280.00;;;269.20;;
13605;SDS011;6874;52.084;5.090;2023-06-22T13:20:56;253.07;;;243.33;;
13605;SDS011;6874;52.084;5.090;2023-06-22T13:23:23;223.30;;;214.77;;
13605;SDS011;6874;52.084;5.090;2023-06-22T13:25:48;202.47;;;194.77;;
13605;SDS011;6874;52.084;5.090;2023-06-22T13:28:14;205.57;;;197.93;;
13605;SDS011;6874;52.084;5.090;2023-06-22T13:30:41;225.67;;;217.20;;
13605;SDS011;6874;52.084;5.090;2023-06-22T13:33:07;229.30;;;220.63;;
13605;SDS011;6874;52.084;5.090;2023-06-22T13:35:33;262.37;;;252.70;;
13605;SDS011;6874;52.084;5.090;2023-06-22T13:38:02;282.67;;;271.93;;
13605;SDS011;6874;52.084;5.090;2023-06-22T13:40:28;303.53;;;291.93;;
13605;SDS011;6874;52.084;5.090;2023-06-22T13:42:54;297.33;;;286.13;;
13605;SDS011;6874;52.084;5.090;2023-06-22T13:45:20;303.03;;;291.63;;
13605;SDS011;6874;52.084;5.090;2023-06-22T13:47:46;299.10;;;287.90;;
13605;SDS011;6874;52.084;5.090;2023-06-22T13:50:15;298.73;;;287.70;;
13605;SDS011;6874;52.084;5.090;2023-06-22T13:52:40;318.90;;;306.93;;
13605;SDS011;6874;52.084;5.090;2023-06-22T13:55:06;310.93;;;299.50;;
13605;SDS011;6874;52.084;5.090;2023-06-22T13:57:32;261.33;;;251.73;;
13605;SDS011;6874;52.084;5.090;2023-06-22T13:59:58;249.40;;;240.23;;
13605;SDS011;6874;52.084;5.090;2023-06-22T14:02:25;238.60;;;230.07;;
13605;SDS011;6874;52.084;5.090;2023-06-22T14:04:52;198.10;;;190.97;;
13605;SDS011;6874;52.084;5.090;2023-06-22T14:07:18;189.10;;;182.30;;
13605;SDS011;6874;52.084;5.090;2023-06-22T14:09:47;172.27;;;166.07;;
13605;SDS011;6874;52.084;5.090;2023-06-22T14:12:12;168.40;;;162.37;;
13605;SDS011;6874;52.084;5.090;2023-06-22T14:14:38;157.23;;;151.60;;
13605;SDS011;6874;52.084;5.090;2023-06-22T14:17:04;165.67;;;159.47;;
13605;SDS011;6874;52.084;5.090;2023-06-22T14:19:30;197.07;;;189.80;;